createdAt,value
2018-03-25T00:00:01.603Z,100534.32
2018-03-25T00:01:08.928Z,100534.95
2018-03-25T00:02:13.778Z,100535.86
2018-03-25T00:03:18.645Z,100530.61
2018-03-25T00:04:23.784Z,100534.91
2018-03-25T00:05:28.745Z,100533.30
2018-03-25T00:06:33.578Z,100536.62
2018-03-25T00:07:38.562Z,100543.69
2018-03-25T00:08:43.501Z,100537.57
2018-03-25T00:09:49.228Z,100532.78
2018-03-25T00:10:54.411Z,100538.52
2018-03-25T00:11:59.551Z,100536.62
2018-03-25T00:13:04.712Z,100535.64
2018-03-25T00:14:09.602Z,100533.55
2018-03-25T00:15:16.565Z,100534.17
2018-03-25T00:16:21.398Z,100532.13
2018-03-25T00:17:26.387Z,100541.00
2018-03-25T00:18:30.988Z,100540.54
2018-03-25T00:19:35.848Z,100535.45
2018-03-25T00:20:40.710Z,100540.80
2018-03-25T00:21:45.458Z,100533.34
2018-03-25T00:22:50.340Z,100539.48
2018-03-25T00:23:55.241Z,100534.99
2018-03-25T00:25:00.412Z,100538.31
2018-03-25T00:26:05.412Z,100531.30
2018-03-25T00:27:10.245Z,100532.50
2018-03-25T00:28:16.303Z,100533.05
2018-03-25T00:29:21.166Z,100533.34
2018-03-25T00:30:26.147Z,100535.26
2018-03-25T00:31:30.951Z,100539.83
2018-03-25T00:32:35.935Z,100528.81
2018-03-25T00:33:40.854Z,100539.92
2018-03-25T00:34:46.011Z,100541.76
2018-03-25T00:35:51.510Z,100538.27
2018-03-25T00:36:56.442Z,100539.09
2018-03-25T00:38:01.791Z,100529.45
2018-03-25T00:39:08.008Z,100532.95
2018-03-25T00:40:12.801Z,100535.65
2018-03-25T00:41:18.369Z,100528.59
2018-03-25T00:42:23.236Z,100535.72
2018-03-25T00:43:27.882Z,100529.02
2018-03-25T00:44:32.615Z,100531.50
2018-03-25T00:45:37.907Z,100529.53
2018-03-25T00:46:43.406Z,100528.20
2018-03-25T00:47:48.218Z,100528.42
2018-03-25T00:48:53.024Z,100529.78
2018-03-25T00:49:58.216Z,100526.88
2018-03-25T00:51:03.513Z,100530.78
2018-03-25T00:52:08.635Z,100534.70
2018-03-25T00:53:14.449Z,100523.80
2018-03-25T00:54:19.646Z,100522.05
2018-03-25T00:55:24.569Z,100530.45
2018-03-25T00:56:29.422Z,100527.75
2018-03-25T00:57:34.356Z,100527.41
2018-03-25T00:58:39.479Z,100528.78
2018-03-25T00:59:44.464Z,100527.55
2018-03-25T01:00:50.079Z,100534.25
2018-03-25T01:01:55.345Z,100536.42
2018-03-25T01:03:00.475Z,100528.43
2018-03-25T01:04:05.861Z,100540.03
2018-03-25T01:05:11.165Z,100534.11
2018-03-25T01:06:17.276Z,100535.54
2018-03-25T01:07:22.295Z,100538.30
2018-03-25T01:08:27.208Z,100538.50
2018-03-25T01:09:32.292Z,100535.04
2018-03-25T01:10:37.367Z,100540.49
2018-03-25T01:11:42.678Z,100539.70
2018-03-25T01:12:47.838Z,100541.55
2018-03-25T01:13:54.696Z,100542.55
2018-03-25T01:14:59.926Z,100543.91
2018-03-25T01:16:13.291Z,100543.94
2018-03-25T01:17:18.866Z,100545.74
2018-03-25T01:18:24.001Z,100547.97
2018-03-25T01:19:28.987Z,100544.97
2018-03-25T01:20:33.925Z,100538.06
2018-03-25T01:21:38.873Z,100537.70
2018-03-25T01:22:43.874Z,100548.11
2018-03-25T01:23:55.172Z,100536.13
2018-03-25T01:25:00.428Z,100534.36
2018-03-25T01:26:05.512Z,100542.50
2018-03-25T01:27:10.628Z,100543.74
2018-03-25T01:28:16.442Z,100544.05
2018-03-25T01:29:21.659Z,100542.53
2018-03-25T01:30:27.130Z,100540.01
2018-03-25T01:31:32.251Z,100544.53
2018-03-25T01:32:37.387Z,100547.59
2018-03-25T01:33:42.778Z,100542.23
2018-03-25T01:34:48.527Z,100547.70
2018-03-25T01:35:54.003Z,100541.58
2018-03-25T01:36:59.379Z,100545.05
2018-03-25T01:38:04.409Z,100543.99
2018-03-25T01:39:09.684Z,100548.11
2018-03-25T01:40:15.659Z,100546.26
2018-03-25T01:41:20.650Z,100545.36
2018-03-25T01:42:25.843Z,100540.48
2018-03-25T01:43:30.872Z,100549.79
2018-03-25T01:44:36.072Z,100545.48
2018-03-25T01:45:41.548Z,100548.64
2018-03-25T01:46:46.753Z,100544.47
2018-03-25T01:47:52.544Z,100548.08
2018-03-25T01:48:57.767Z,100547.31
2018-03-25T01:50:03.402Z,100547.41
2018-03-25T01:51:08.759Z,100542.28
2018-03-25T01:52:14.808Z,100544.84
2018-03-25T01:53:20.266Z,100541.89
2018-03-25T01:54:25.638Z,100541.38
2018-03-25T01:55:30.722Z,100538.87
2018-03-25T01:56:35.809Z,100548.56
2018-03-25T01:57:41.826Z,100541.64
2018-03-25T01:58:47.177Z,100546.84
2018-03-25T01:59:53.175Z,100547.27
2018-03-25T02:01:00.009Z,100546.85
2018-03-25T02:02:05.432Z,100550.95
2018-03-25T02:03:11.006Z,100547.42
2018-03-25T02:04:16.934Z,100551.30
2018-03-25T02:05:21.867Z,100546.45
2018-03-25T02:06:26.955Z,100540.84
2018-03-25T02:07:32.276Z,100549.45
2018-03-25T02:08:37.441Z,100548.50
2018-03-25T02:09:42.627Z,100543.56
2018-03-25T02:10:48.843Z,100540.44
2018-03-25T02:11:54.952Z,100540.11
2018-03-25T02:13:00.134Z,100538.38
2018-03-25T02:14:05.432Z,100538.02
2018-03-25T02:15:13.257Z,100539.66
2018-03-25T02:16:19.334Z,100535.47
2018-03-25T02:17:24.870Z,100530.40
2018-03-25T02:18:29.939Z,100534.28
2018-03-25T02:19:36.034Z,100536.63
2018-03-25T02:20:41.694Z,100536.22
2018-03-25T02:21:47.429Z,100533.62
2018-03-25T02:22:53.195Z,100529.20
2018-03-25T02:23:58.704Z,100527.61
2018-03-25T02:25:03.918Z,100533.90
2018-03-25T02:26:09.111Z,100537.82
2018-03-25T02:27:14.370Z,100539.09
2018-03-25T02:28:19.683Z,100536.58
2018-03-25T02:29:24.922Z,100534.36
2018-03-25T02:30:30.694Z,100538.92
2018-03-25T02:31:35.944Z,100541.08
2018-03-25T02:32:41.337Z,100543.09
2018-03-25T02:33:46.359Z,100550.83
2018-03-25T02:34:52.495Z,100543.41
2018-03-25T02:35:58.123Z,100546.61
2018-03-25T02:37:03.389Z,100548.94
2018-03-25T02:38:08.291Z,100545.84
2018-03-25T02:39:14.212Z,100551.59
2018-03-25T02:40:19.248Z,100551.63
2018-03-25T02:41:24.408Z,100554.66
2018-03-25T02:42:29.600Z,100549.78
2018-03-25T02:43:35.094Z,100549.78
2018-03-25T02:44:40.286Z,100551.18
2018-03-25T02:45:45.898Z,100551.20
2018-03-25T02:46:51.229Z,100554.38
2018-03-25T02:47:57.791Z,100553.98
2018-03-25T02:49:03.032Z,100552.23
2018-03-25T02:50:08.008Z,100551.86
2018-03-25T02:51:13.020Z,100554.10
2018-03-25T02:52:19.343Z,100556.21
2018-03-25T02:53:24.823Z,100557.06
2018-03-25T02:54:29.851Z,100551.26
2018-03-25T02:55:36.114Z,100552.17
2018-03-25T02:56:41.354Z,100553.12
2018-03-25T02:57:46.892Z,100556.63
2018-03-25T02:58:52.469Z,100557.92
2018-03-25T02:59:58.800Z,100557.33
2018-03-25T03:01:05.082Z,100560.31
2018-03-25T03:02:10.561Z,100560.56
2018-03-25T03:03:17.242Z,100566.21
2018-03-25T03:04:22.556Z,100562.74
2018-03-25T03:05:28.449Z,100564.84
2018-03-25T03:06:34.375Z,100559.23
2018-03-25T03:07:40.163Z,100560.19
2018-03-25T03:08:45.166Z,100568.73
2018-03-25T03:09:50.144Z,100568.89
2018-03-25T03:10:55.376Z,100570.32
2018-03-25T03:12:00.655Z,100569.09
2018-03-25T03:13:06.712Z,100565.13
2018-03-25T03:14:11.825Z,100568.20
2018-03-25T03:15:17.388Z,100574.01
2018-03-25T03:16:22.311Z,100571.30
2018-03-25T03:17:28.022Z,100572.17
2018-03-25T03:18:33.000Z,100569.89
2018-03-25T03:19:38.116Z,100580.50
2018-03-25T03:20:44.028Z,100574.33
2018-03-25T03:21:49.403Z,100568.52
2018-03-25T03:22:55.261Z,100579.64
2018-03-25T03:24:00.856Z,100574.39
2018-03-25T03:25:06.085Z,100578.91
2018-03-25T03:26:11.275Z,100578.05
2018-03-25T03:27:17.218Z,100575.91
2018-03-25T03:28:22.508Z,100577.70
2018-03-25T03:29:27.514Z,100575.45
2018-03-25T03:30:33.612Z,100579.73
2018-03-25T03:31:38.288Z,100581.14
2018-03-25T03:32:43.277Z,100576.77
2018-03-25T03:33:48.163Z,100577.67
2018-03-25T03:34:53.261Z,100580.84
2018-03-25T03:35:58.756Z,100585.76
2018-03-25T03:37:03.983Z,100589.36
2018-03-25T03:38:09.251Z,100583.59
2018-03-25T03:39:15.042Z,100589.34
2018-03-25T03:40:20.331Z,100587.07
2018-03-25T03:41:25.378Z,100592.80
2018-03-25T03:42:30.282Z,100592.33
2018-03-25T03:43:35.566Z,100589.19
2018-03-25T03:44:40.727Z,100589.17
2018-03-25T03:45:45.673Z,100581.12
2018-03-25T03:46:50.409Z,100583.63
2018-03-25T03:47:56.258Z,100588.88
2018-03-25T03:49:00.850Z,100581.08
2018-03-25T03:50:05.838Z,100584.47
2018-03-25T03:51:10.552Z,100590.21
2018-03-25T03:52:16.322Z,100593.02
2018-03-25T03:53:21.311Z,100595.38
2018-03-25T03:54:26.213Z,100592.51
2018-03-25T03:55:31.657Z,100592.12
2018-03-25T03:56:36.440Z,100593.05
2018-03-25T03:57:41.409Z,100593.56
2018-03-25T03:58:45.945Z,100591.41
2018-03-25T03:59:50.935Z,100597.23
2018-03-25T04:00:56.986Z,100590.05
2018-03-25T04:02:02.108Z,100588.06
2018-03-25T04:03:07.164Z,100594.14
2018-03-25T04:04:12.901Z,100591.50
2018-03-25T04:05:17.775Z,100593.59
2018-03-25T04:06:22.859Z,100598.91
2018-03-25T04:07:27.779Z,100589.71
2018-03-25T04:08:32.823Z,100596.70
2018-03-25T04:09:37.862Z,100591.43
2018-03-25T04:10:42.359Z,100591.05
2018-03-25T04:11:47.292Z,100599.77
2018-03-25T04:12:52.206Z,100596.00
2018-03-25T04:13:56.860Z,100598.69
2018-03-25T04:15:04.119Z,100592.59
2018-03-25T04:16:09.114Z,100594.51
2018-03-25T04:17:13.702Z,100595.84
2018-03-25T04:18:18.567Z,100601.00
2018-03-25T04:19:23.584Z,100591.50
2018-03-25T04:20:28.710Z,100596.95
2018-03-25T04:21:33.184Z,100598.57
2018-03-25T04:22:38.031Z,100595.60
2018-03-25T04:23:42.809Z,100598.79
2018-03-25T04:24:47.336Z,100594.31
2018-03-25T04:25:52.456Z,100599.52
2018-03-25T04:26:57.302Z,100597.84
2018-03-25T04:28:01.902Z,100595.34
2018-03-25T04:29:06.394Z,100595.71
2018-03-25T04:30:14.929Z,100592.75
2018-03-25T04:31:19.405Z,100596.45
2018-03-25T04:32:24.060Z,100589.67
2018-03-25T04:33:29.096Z,100596.95
2018-03-25T04:34:33.846Z,100597.86
2018-03-25T04:35:38.590Z,100598.34
2018-03-25T04:36:43.067Z,100600.57
2018-03-25T04:37:48.201Z,100598.37
2018-03-25T04:38:53.089Z,100601.83
2018-03-25T04:39:58.858Z,100598.37
2018-03-25T04:41:04.434Z,100601.56
2018-03-25T04:42:09.227Z,100605.47
2018-03-25T04:43:14.127Z,100599.61
2018-03-25T04:44:18.748Z,100601.81
2018-03-25T04:45:23.802Z,100600.61
2018-03-25T04:46:28.335Z,100603.66
2018-03-25T04:47:32.941Z,100604.55
2018-03-25T04:48:37.458Z,100601.90
2018-03-25T04:49:42.258Z,100603.63
2018-03-25T04:50:46.901Z,100604.47
2018-03-25T04:51:51.453Z,100610.09
2018-03-25T04:52:56.278Z,100603.52
2018-03-25T04:54:01.346Z,100613.33
2018-03-25T04:55:07.020Z,100610.14
2018-03-25T04:56:12.007Z,100611.59
2018-03-25T04:57:17.530Z,100608.32
2018-03-25T04:58:21.936Z,100605.86
2018-03-25T04:59:27.060Z,100611.70
2018-03-25T05:00:32.420Z,100609.69
2018-03-25T05:01:38.345Z,100611.63
2018-03-25T05:02:43.490Z,100608.94
2018-03-25T05:03:48.428Z,100608.99
2018-03-25T05:04:53.047Z,100611.30
2018-03-25T05:05:57.722Z,100602.56
2018-03-25T05:07:02.399Z,100610.59
2018-03-25T05:08:07.776Z,100609.28
2018-03-25T05:09:12.554Z,100610.14
2018-03-25T05:10:17.980Z,100606.86
2018-03-25T05:11:22.370Z,100607.28
2018-03-25T05:12:26.878Z,100611.39
2018-03-25T05:13:31.917Z,100610.52
2018-03-25T05:14:36.481Z,100613.25
2018-03-25T05:15:41.310Z,100607.92
2018-03-25T05:16:45.705Z,100607.64
2018-03-25T05:17:50.997Z,100609.45
2018-03-25T05:18:55.643Z,100609.16
2018-03-25T05:20:00.267Z,100612.75
2018-03-25T05:21:05.583Z,100621.18
2018-03-25T05:22:11.397Z,100620.30
2018-03-25T05:23:16.214Z,100615.95
2018-03-25T05:24:21.061Z,100619.93
2018-03-25T05:25:25.742Z,100621.59
2018-03-25T05:26:30.740Z,100615.86
2018-03-25T05:27:35.666Z,100619.84
2018-03-25T05:28:41.023Z,100623.92
2018-03-25T05:29:45.988Z,100627.16
2018-03-25T05:30:51.335Z,100625.77
2018-03-25T05:31:56.654Z,100622.11
2018-03-25T05:33:01.620Z,100621.50
2018-03-25T05:34:07.081Z,100620.83
2018-03-25T05:35:11.960Z,100619.94
2018-03-25T05:36:17.244Z,100618.10
2018-03-25T05:37:22.141Z,100620.84
2018-03-25T05:38:27.611Z,100619.14
2018-03-25T05:39:32.526Z,100620.47
2018-03-25T05:40:38.100Z,100619.62
2018-03-25T05:41:43.437Z,100627.59
2018-03-25T05:42:48.357Z,100616.13
2018-03-25T05:43:53.607Z,100619.70
2018-03-25T05:44:59.141Z,100620.59
2018-03-25T05:46:04.643Z,100617.98
2018-03-25T05:47:11.434Z,100618.53
2018-03-25T05:48:16.219Z,100620.86
2018-03-25T05:49:20.857Z,100620.95
2018-03-25T05:50:25.910Z,100618.45
2018-03-25T05:51:30.910Z,100621.69
2018-03-25T05:52:36.928Z,100622.66
2018-03-25T05:53:42.132Z,100622.71
2018-03-25T05:54:47.766Z,100624.59
2018-03-25T05:55:52.697Z,100634.39
2018-03-25T05:56:57.620Z,100628.25
2018-03-25T05:58:02.761Z,100624.78
2018-03-25T05:59:08.960Z,100624.42
2018-03-25T06:00:15.970Z,100626.24
2018-03-25T06:01:21.725Z,100623.65
2018-03-25T06:02:27.024Z,100622.40
2018-03-25T06:03:32.349Z,100627.72
2018-03-25T06:04:37.674Z,100631.33
2018-03-25T06:05:43.679Z,100632.23
2018-03-25T06:06:49.014Z,100636.67
2018-03-25T06:07:53.850Z,100633.18
2018-03-25T06:08:58.748Z,100636.77
2018-03-25T06:10:03.567Z,100636.87
2018-03-25T06:11:08.718Z,100639.05
2018-03-25T06:12:13.718Z,100635.09
2018-03-25T06:13:18.665Z,100642.58
2018-03-25T06:14:23.684Z,100644.16
2018-03-25T06:15:29.579Z,100648.48
2018-03-25T06:16:34.845Z,100648.04
2018-03-25T06:17:40.648Z,100650.69
2018-03-25T06:18:45.530Z,100648.41
2018-03-25T06:19:50.589Z,100653.77
2018-03-25T06:20:55.908Z,100650.21
2018-03-25T06:22:01.926Z,100658.14
2018-03-25T06:23:07.556Z,100658.63
2018-03-25T06:24:13.418Z,100658.91
2018-03-25T06:25:19.439Z,100656.57
2018-03-25T06:26:25.177Z,100661.00
2018-03-25T06:27:30.425Z,100664.93
2018-03-25T06:28:36.019Z,100660.78
2018-03-25T06:29:41.917Z,100663.63
2018-03-25T06:30:47.734Z,100660.52
2018-03-25T06:31:52.821Z,100664.56
2018-03-25T06:32:58.344Z,100664.72
2018-03-25T06:34:03.836Z,100669.25
2018-03-25T06:35:09.403Z,100668.78
2018-03-25T06:36:14.435Z,100669.12
2018-03-25T06:37:20.519Z,100674.19
2018-03-25T06:38:25.573Z,100669.09
2018-03-25T06:39:30.851Z,100673.77
2018-03-25T06:40:36.048Z,100677.58
2018-03-25T06:41:41.560Z,100681.51
2018-03-25T06:42:46.493Z,100686.31
2018-03-25T06:43:51.386Z,100683.07
2018-03-25T06:44:56.807Z,100676.47
2018-03-25T06:46:02.669Z,100685.20
2018-03-25T06:47:09.261Z,100689.61
2018-03-25T06:48:14.234Z,100688.73
2018-03-25T06:49:19.559Z,100692.39
2018-03-25T06:50:24.853Z,100690.87
2018-03-25T06:51:29.794Z,100696.70
2018-03-25T06:52:34.724Z,100698.17
2018-03-25T06:53:40.284Z,100699.16
2018-03-25T06:54:45.439Z,100701.42
2018-03-25T06:55:50.646Z,100705.87
2018-03-25T06:56:55.669Z,100708.02
2018-03-25T06:58:01.821Z,100705.01
2018-03-25T06:59:07.918Z,100707.34
2018-03-25T07:00:16.747Z,100701.46
2018-03-25T07:01:21.979Z,100707.01
2018-03-25T07:02:27.422Z,100703.80
2018-03-25T07:03:33.201Z,100707.34
2018-03-25T07:04:38.959Z,100706.98
2018-03-25T07:05:44.502Z,100708.14
2018-03-25T07:06:49.690Z,100711.53
2018-03-25T07:07:54.770Z,100712.30
2018-03-25T07:08:59.776Z,100709.80
2018-03-25T07:10:05.265Z,100710.82
2018-03-25T07:11:11.038Z,100714.55
2018-03-25T07:12:17.159Z,100718.56
2018-03-25T07:13:22.450Z,100719.77
2018-03-25T07:14:28.461Z,100719.36
2018-03-25T07:15:33.511Z,100724.10
2018-03-25T07:16:38.560Z,100722.96
2018-03-25T07:17:43.504Z,100729.95
2018-03-25T07:18:49.090Z,100732.17
2018-03-25T07:19:54.328Z,100734.45
2018-03-25T07:20:59.451Z,100734.88
2018-03-25T07:22:05.269Z,100734.44
2018-03-25T07:23:10.509Z,100738.99
2018-03-25T07:24:16.376Z,100738.61
2018-03-25T07:25:22.549Z,100739.48
2018-03-25T07:26:28.572Z,100739.59
2018-03-25T07:27:33.664Z,100737.77
2018-03-25T07:28:38.869Z,100741.54
2018-03-25T07:29:43.799Z,100739.96
2018-03-25T07:30:49.505Z,100740.12
2018-03-25T07:31:55.045Z,100742.92
2018-03-25T07:33:00.436Z,100746.02
2018-03-25T07:34:05.727Z,100739.81
2018-03-25T07:35:11.073Z,100743.53
2018-03-25T07:36:16.341Z,100738.05
2018-03-25T07:37:21.365Z,100732.48
2018-03-25T07:38:27.419Z,100740.50
2018-03-25T07:39:32.506Z,100736.80
2018-03-25T07:40:37.525Z,100740.61
2018-03-25T07:41:42.326Z,100740.17
2018-03-25T07:42:47.229Z,100737.94
2018-03-25T07:43:52.499Z,100738.96
2018-03-25T07:44:57.435Z,100741.80
2018-03-25T07:46:03.129Z,100743.23
2018-03-25T07:47:08.449Z,100738.36
2018-03-25T07:48:13.552Z,100745.95
2018-03-25T07:49:18.608Z,100748.66
2018-03-25T07:50:25.300Z,100745.64
2018-03-25T07:51:30.271Z,100744.59
2018-03-25T07:52:35.237Z,100750.05
2018-03-25T07:53:40.184Z,100748.83
2018-03-25T07:54:45.398Z,100753.01
2018-03-25T07:55:50.393Z,100753.48
2018-03-25T07:56:55.899Z,100751.58
2018-03-25T07:58:00.812Z,100750.23
2018-03-25T07:59:06.097Z,100757.39
2018-03-25T08:00:11.109Z,100761.03
2018-03-25T08:01:17.277Z,100756.66
2018-03-25T08:02:22.599Z,100759.27
2018-03-25T08:03:27.392Z,100766.30
2018-03-25T08:04:32.374Z,100765.73
2018-03-25T08:05:37.308Z,100760.48
2018-03-25T08:06:42.393Z,100769.52
2018-03-25T08:07:47.678Z,100761.98
2018-03-25T08:08:52.792Z,100769.73
2018-03-25T08:09:57.618Z,100774.50
2018-03-25T08:11:02.408Z,100762.98
2018-03-25T08:12:07.501Z,100765.97
2018-03-25T08:13:12.518Z,100770.70
2018-03-25T08:14:18.009Z,100779.14
2018-03-25T08:15:23.624Z,100776.80
2018-03-25T08:16:28.495Z,100784.16
2018-03-25T08:17:33.432Z,100779.37
2018-03-25T08:18:38.383Z,100781.86
2018-03-25T08:19:43.199Z,100783.31
2018-03-25T08:20:48.317Z,100783.47
2018-03-25T08:21:53.255Z,100782.13
2018-03-25T08:22:58.151Z,100783.47
2018-03-25T08:24:03.004Z,100780.11
2018-03-25T08:25:08.161Z,100783.31
2018-03-25T08:26:13.103Z,100779.94
2018-03-25T08:27:18.351Z,100781.78
2018-03-25T08:28:24.305Z,100785.84
2018-03-25T08:29:29.239Z,100789.30
2018-03-25T08:30:35.307Z,100789.15
2018-03-25T08:31:40.699Z,100793.48
2018-03-25T08:32:45.375Z,100796.08
2018-03-25T08:33:50.538Z,100796.94
2018-03-25T08:34:55.297Z,100798.83
2018-03-25T08:36:00.298Z,100801.19
2018-03-25T08:37:05.046Z,100802.22
2018-03-25T08:38:09.846Z,100798.06
2018-03-25T08:39:15.051Z,100805.45
2018-03-25T08:40:19.749Z,100802.27
2018-03-25T08:41:24.603Z,100801.83
2018-03-25T08:42:30.296Z,100804.73
2018-03-25T08:43:35.295Z,100794.36
2018-03-25T08:44:40.161Z,100804.59
2018-03-25T08:45:45.498Z,100800.19
2018-03-25T08:46:50.189Z,100801.39
2018-03-25T08:47:54.916Z,100800.00
2018-03-25T08:48:59.752Z,100797.38
2018-03-25T08:50:04.693Z,100799.60
2018-03-25T08:51:09.397Z,100799.70
2018-03-25T08:52:14.699Z,100797.46
2018-03-25T08:53:19.398Z,100801.39
2018-03-25T08:54:24.236Z,100798.73
2018-03-25T08:55:28.901Z,100804.23
2018-03-25T08:56:33.698Z,100804.12
2018-03-25T08:57:38.410Z,100804.27
2018-03-25T08:58:43.094Z,100802.62
2018-03-25T08:59:47.964Z,100802.72
2018-03-25T09:00:52.997Z,100802.27
2018-03-25T09:01:57.731Z,100802.41
2018-03-25T09:03:02.389Z,100803.26
2018-03-25T09:04:07.237Z,100806.80
2018-03-25T09:05:12.312Z,100809.23
2018-03-25T09:06:17.377Z,100809.45
2018-03-25T09:07:22.098Z,100809.73
2018-03-25T09:08:26.846Z,100811.36
2018-03-25T09:09:31.620Z,100812.18
2018-03-25T09:10:36.382Z,100812.16
2018-03-25T09:11:42.514Z,100812.97
2018-03-25T09:12:47.221Z,100810.41
2018-03-25T09:13:51.910Z,100810.34
2018-03-25T09:14:56.730Z,100812.87
2018-03-25T09:16:01.873Z,100810.06
2018-03-25T09:17:06.982Z,100811.17
2018-03-25T09:18:12.044Z,100815.56
2018-03-25T09:19:16.864Z,100809.03
2018-03-25T09:20:21.874Z,100813.38
2018-03-25T09:21:27.005Z,100817.72
2018-03-25T09:22:31.593Z,100814.41
2018-03-25T09:23:37.882Z,100818.94
2018-03-25T09:24:43.524Z,100813.53
2018-03-25T09:25:48.268Z,100815.94
2018-03-25T09:26:52.936Z,100819.81
2018-03-25T09:27:57.837Z,100817.67
2018-03-25T09:29:02.692Z,100817.61
2018-03-25T09:30:08.304Z,100817.20
2018-03-25T09:31:13.270Z,100819.06
2018-03-25T09:32:18.410Z,100819.55
2018-03-25T09:33:23.846Z,100819.09
2018-03-25T09:34:28.680Z,100820.99
2018-03-25T09:35:33.422Z,100825.05
2018-03-25T09:36:38.667Z,100826.14
2018-03-25T09:37:44.419Z,100824.24
2018-03-25T09:38:49.114Z,100827.33
2018-03-25T09:39:53.901Z,100825.66
2018-03-25T09:40:58.676Z,100824.16
2018-03-25T09:42:03.476Z,100826.47
2018-03-25T09:43:08.709Z,100825.70
2018-03-25T09:44:13.416Z,100827.73
2018-03-25T09:45:18.755Z,100827.08
2018-03-25T09:46:23.485Z,100829.55
2018-03-25T09:47:28.407Z,100831.06
2018-03-25T09:48:33.046Z,100828.14
2018-03-25T09:49:38.336Z,100828.89
2018-03-25T09:50:43.053Z,100835.28
2018-03-25T09:51:47.775Z,100837.52
2018-03-25T09:52:52.450Z,100835.09
2018-03-25T09:53:57.144Z,100833.97
2018-03-25T09:55:03.253Z,100836.55
2018-03-25T09:56:08.079Z,100835.11
2018-03-25T09:57:12.939Z,100839.39
2018-03-25T09:58:17.848Z,100844.17
2018-03-25T09:59:22.834Z,100840.37
2018-03-25T10:00:30.696Z,100839.91
2018-03-25T10:01:36.465Z,100843.25
2018-03-25T10:02:42.967Z,100840.82
2018-03-25T10:03:47.696Z,100847.16
2018-03-25T10:04:52.464Z,100834.64
2018-03-25T10:05:57.723Z,100844.14
2018-03-25T10:07:02.465Z,100840.54
2018-03-25T10:08:07.051Z,100838.79
2018-03-25T10:09:11.800Z,100841.44
2018-03-25T10:10:17.010Z,100835.91
2018-03-25T10:11:22.177Z,100837.48
2018-03-25T10:12:27.248Z,100842.92
2018-03-25T10:13:32.026Z,100841.69
2018-03-25T10:14:38.554Z,100843.23
2018-03-25T10:15:43.795Z,100842.53
2018-03-25T10:16:48.500Z,100843.77
2018-03-25T10:17:53.183Z,100842.13
2018-03-25T10:18:57.805Z,100849.48
2018-03-25T10:20:02.593Z,100845.89
2018-03-25T10:21:07.156Z,100843.34
2018-03-25T10:22:11.887Z,100842.44
2018-03-25T10:23:16.676Z,100846.72
2018-03-25T10:24:21.611Z,100845.34
2018-03-25T10:25:26.413Z,100849.78
2018-03-25T10:26:31.208Z,100852.69
2018-03-25T10:27:36.744Z,100851.75
2018-03-25T10:28:41.451Z,100849.33
2018-03-25T10:29:46.801Z,100852.12
2018-03-25T10:30:52.201Z,100849.83
2018-03-25T10:31:56.939Z,100853.92
2018-03-25T10:33:01.630Z,100852.02
2018-03-25T10:34:06.391Z,100854.67
2018-03-25T10:35:11.147Z,100860.50
2018-03-25T10:36:15.991Z,100859.67
2018-03-25T10:37:21.211Z,100854.61
2018-03-25T10:38:26.226Z,100855.45
2018-03-25T10:39:30.995Z,100853.89
2018-03-25T10:40:35.655Z,100858.13
2018-03-25T10:41:40.398Z,100856.25
2018-03-25T10:42:45.122Z,100861.72
2018-03-25T10:43:50.247Z,100857.64
2018-03-25T10:44:55.061Z,100858.69
2018-03-25T10:45:59.853Z,100860.58
2018-03-25T10:47:04.639Z,100856.02
2018-03-25T10:48:09.403Z,100855.73
2018-03-25T10:49:14.168Z,100865.05
2018-03-25T10:50:19.186Z,100866.92
2018-03-25T10:52:32.754Z,100861.97
2018-03-25T10:53:38.449Z,100863.25
2018-03-25T10:54:44.385Z,100865.70
2018-03-25T10:55:50.319Z,100861.95
2018-03-25T10:57:57.552Z,100871.53
2018-03-25T10:59:02.242Z,100868.56
2018-03-25T11:00:07.875Z,100861.64
2018-03-25T11:01:13.452Z,100869.78
2018-03-25T11:02:18.548Z,100864.20
2018-03-25T11:03:23.638Z,100868.88
2018-03-25T11:04:28.472Z,100869.22
2018-03-25T11:05:33.387Z,100872.88
2018-03-25T11:06:38.220Z,100863.91
2018-03-25T11:07:43.000Z,100865.84
2018-03-25T11:08:48.320Z,100864.20
2018-03-25T11:09:53.056Z,100864.37
2018-03-25T11:10:57.800Z,100865.03
2018-03-25T11:12:02.782Z,100867.28
2018-03-25T11:13:07.456Z,100864.22
2018-03-25T11:14:12.633Z,100868.38
2018-03-25T11:15:17.675Z,100869.11
2018-03-25T11:16:22.510Z,100868.31
2018-03-25T11:17:27.383Z,100863.54
2018-03-25T11:18:32.107Z,100865.23
2018-03-25T11:20:56.826Z,100872.10
2018-03-25T11:22:01.672Z,100868.72
2018-03-25T11:23:06.409Z,100866.49
2018-03-25T11:24:11.209Z,100870.39
2018-03-25T11:25:15.999Z,100870.17
2018-03-25T11:26:21.095Z,100868.80
2018-03-25T11:27:26.042Z,100870.98
2018-03-25T11:28:30.879Z,100868.88
2018-03-25T11:29:35.628Z,100872.34
2018-03-25T11:30:41.759Z,100874.55
2018-03-25T11:31:46.431Z,100870.37
2018-03-25T11:32:51.776Z,100880.30
2018-03-25T11:33:56.475Z,100878.77
2018-03-25T11:35:01.288Z,100872.62
2018-03-25T11:36:06.078Z,100881.50
2018-03-25T11:37:10.685Z,100882.20
2018-03-25T11:38:15.475Z,100876.12
2018-03-25T11:39:20.593Z,100879.51
2018-03-25T11:40:25.549Z,100877.17
2018-03-25T11:41:30.525Z,100876.09
2018-03-25T11:42:35.409Z,100875.19
2018-03-25T11:43:40.033Z,100876.52
2018-03-25T11:44:46.070Z,100883.09
2018-03-25T11:45:52.121Z,100877.21
2018-03-25T11:46:56.860Z,100878.69
2018-03-25T11:48:01.730Z,100880.34
2018-03-25T11:49:06.511Z,100881.80
2018-03-25T11:50:11.208Z,100881.99
2018-03-25T11:51:16.035Z,100885.19
2018-03-25T11:52:21.329Z,100886.58
2018-03-25T11:53:26.334Z,100886.89
2018-03-25T11:54:31.284Z,100883.46
2018-03-25T11:55:35.926Z,100886.52
2018-03-25T11:56:40.624Z,100892.58
2018-03-25T11:57:45.357Z,100882.38
2018-03-25T11:58:50.375Z,100888.70
2018-03-25T11:59:55.131Z,100889.45
2018-03-25T12:00:59.913Z,100879.44
2018-03-25T12:02:04.849Z,100889.66
2018-03-25T12:03:09.552Z,100892.92
2018-03-25T12:04:14.482Z,100894.44
2018-03-25T12:05:19.288Z,100890.13
2018-03-25T12:06:24.027Z,100890.52
2018-03-25T12:07:29.003Z,100888.13
2018-03-25T12:08:33.779Z,100890.26
2018-03-25T12:09:38.857Z,100896.06
2018-03-25T12:10:45.819Z,100892.73
2018-03-25T12:11:50.436Z,100893.95
2018-03-25T12:12:55.153Z,100894.06
2018-03-25T12:14:00.009Z,100893.48
2018-03-25T12:15:06.467Z,100899.92
2018-03-25T12:16:11.761Z,100897.77
2018-03-25T12:17:16.836Z,100899.23
2018-03-25T12:18:21.541Z,100898.81
2018-03-25T12:19:26.316Z,100891.22
2018-03-25T12:20:31.399Z,100893.11
2018-03-25T12:21:36.323Z,100893.25
2018-03-25T12:22:41.058Z,100896.52
2018-03-25T12:23:46.231Z,100892.53
2018-03-25T12:24:50.944Z,100893.15
2018-03-25T12:25:55.759Z,100893.17
2018-03-25T12:27:00.526Z,100886.60